Time;durP1;ratioP1;P1;durP2;ratioP2;P2;SDS_P1;SDS_P2;PMS_P1;PMS_P2;Temp;Humidity;BMP_temperature;BMP_pressure;BME280_temperature;BME280_humidity;BME280_pressure;Samples;Min_cycle;Max_cycle;Signal;HPM_P1;HPM_P2
2021/10/28 00:13:41;;;;;;;12.77;8.15;;;;;;;;;;5069539;28;20032;-67
2021/10/28 00:16:30;;;;;;;19.75;8.25;;;;;;;;;;5059392;28;20028;-70
2021/10/28 00:19:16;;;;;;;11.00;7.78;;;;;;;;;;5061738;28;20115;-73
2021/10/28 00:22:03;;;;;;;15.68;8.73;;;;;;;;;;5056954;28;20074;-66
2021/10/28 00:24:48;;;;;;;17.42;8.68;;;;;;;;;;5057460;28;20372;-66
2021/10/28 00:27:33;;;;;;;11.35;7.97;;;;;;;;;;5050908;28;20550;-67
2021/10/28 00:30:19;;;;;;;14.02;9.45;;;;;;;;;;5062892;28;20032;-67
2021/10/28 00:33:04;;;;;;;16.90;8.27;;;;;;;;;;5081955;28;20033;-66
2021/10/28 00:35:49;;;;;;;11.88;8.25;;;;;;;;;;5059430;28;20036;-67
2021/10/28 00:38:35;;;;;;;13.57;8.63;;;;;;;;;;5064500;28;20032;-61
2021/10/28 00:41:21;;;;;;;11.90;8.75;;;;;;;;;;5061010;28;20040;-63
2021/10/28 00:44:07;;;;;;;14.82;9.15;;;;;;;;;;5057946;28;20023;-66
2021/10/28 00:46:53;;;;;;;17.17;10.00;;;;;;;;;;5058804;28;20591;-62
2021/10/28 00:49:38;;;;;;;21.38;10.63;;;;;;;;;;5057058;28;20036;-62
2021/10/28 00:52:23;;;;;;;15.63;9.55;;;;;;;;;;5066476;28;20079;-63
2021/10/28 00:55:09;;;;;;;14.75;9.98;;;;;;;;;;5066038;28;20398;-64
2021/10/28 00:57:54;;;;;;;15.05;9.60;;;;;;;;;;5055088;28;20036;-65
2021/10/28 01:00:40;;;;;;;15.13;9.90;;;;;;;;;;5065278;28;20032;-66
2021/10/28 01:03:26;;;;;;;19.63;12.38;;;;;;;;;;5057734;28;20025;-63
2021/10/28 01:06:12;;;;;;;15.30;10.15;;;;;;;;;;5039800;28;20035;-63
2021/10/28 01:08:58;;;;;;;15.90;10.15;;;;;;;;;;5057824;28;20025;-66
2021/10/28 01:11:44;;;;;;;16.50;10.02;;;;;;;;;;5054752;28;20127;-65
2021/10/28 01:14:39;;;;;;;15.25;10.15;;;;;;;;;;5059513;28;20036;-62
2021/10/28 01:17:24;;;;;;;17.02;9.93;;;;;;;;;;5060727;28;20105;-64
2021/10/28 01:20:10;;;;;;;16.15;10.93;;;;;;;;;;5066451;28;20064;-63
2021/10/28 01:22:56;;;;;;;14.43;9.82;;;;;;;;;;5063174;28;20056;-64
2021/10/28 01:25:48;;;;;;;14.90;10.32;;;;;;;;;;5049844;28;20054;-65
2021/10/28 01:28:36;;;;;;;17.50;10.43;;;;;;;;;;5060175;28;20492;-62
2021/10/28 01:31:23;;;;;;;17.42;12.30;;;;;;;;;;5067017;28;20044;-64
2021/10/28 01:34:08;;;;;;;14.23;10.43;;;;;;;;;;5044972;28;20054;-64
2021/10/28 01:36:57;;;;;;;16.42;9.90;;;;;;;;;;5060594;28;20043;-62
2021/10/28 01:39:42;;;;;;;20.83;11.52;;;;;;;;;;5063870;28;20125;-59
2021/10/28 01:42:27;;;;;;;18.27;11.30;;;;;;;;;;5041751;28;20169;-60
2021/10/28 01:45:13;;;;;;;20.35;13.05;;;;;;;;;;5062624;28;20031;-60
2021/10/28 01:47:59;;;;;;;20.67;13.02;;;;;;;;;;5049624;28;20045;-61
2021/10/28 01:50:45;;;;;;;21.00;14.40;;;;;;;;;;5059675;28;20044;-64
2021/10/28 01:53:30;;;;;;;20.15;13.38;;;;;;;;;;5058558;28;20551;-64
2021/10/28 01:56:15;;;;;;;24.17;16.77;;;;;;;;;;5063901;28;20067;-61
2021/10/28 01:59:01;;;;;;;25.35;15.60;;;;;;;;;;5053385;28;20032;-60
2021/10/28 02:01:46;;;;;;;26.27;16.10;;;;;;;;;;5057081;28;20491;-61
2021/10/28 02:04:31;;;;;;;24.40;16.40;;;;;;;;;;5056043;28;20032;-61
2021/10/28 02:07:17;;;;;;;31.90;19.80;;;;;;;;;;5061906;28;20044;-61
2021/10/28 02:10:04;;;;;;;28.92;18.20;;;;;;;;;;5062120;28;20081;-70
2021/10/28 02:12:50;;;;;;;24.40;16.35;;;;;;;;;;5063738;28;20044;-67
2021/10/28 02:15:36;;;;;;;30.60;19.48;;;;;;;;;;5047233;28;20123;-68
2021/10/28 02:18:22;;;;;;;28.25;18.90;;;;;;;;;;5056623;28;20059;-66
2021/10/28 02:21:07;;;;;;;22.02;16.52;;;;;;;;;;5068332;28;20032;-66
2021/10/28 02:23:52;;;;;;;25.45;18.25;;;;;;;;;;5060961;28;20590;-69
2021/10/28 02:26:38;;;;;;;30.58;19.10;;;;;;;;;;5068455;28;20036;-66
2021/10/28 02:29:23;;;;;;;27.92;18.25;;;;;;;;;;5054023;28;20393;-66
2021/10/28 02:32:09;;;;;;;24.30;17.45;;;;;;;;;;5063053;28;20103;-67
2021/10/28 02:34:54;;;;;;;22.48;16.00;;;;;;;;;;5059590;28;20120;-70
2021/10/28 02:37:39;;;;;;;21.83;15.88;;;;;;;;;;5055038;28;20029;-68
2021/10/28 02:40:26;;;;;;;23.27;17.15;;;;;;;;;;5059876;28;20020;-67
2021/10/28 02:43:11;;;;;;;24.17;17.33;;;;;;;;;;5066246;28;20020;-65
2021/10/28 02:45:56;;;;;;;20.83;14.30;;;;;;;;;;5065309;28;20036;-62
2021/10/28 02:48:41;;;;;;;19.60;15.57;;;;;;;;;;5042584;28;20500;-61
2021/10/28 02:51:27;;;;;;;18.45;14.50;;;;;;;;;;5051586;28;20025;-61
2021/10/28 02:54:19;;;;;;;19.08;14.25;;;;;;;;;;5065584;28;20039;-61
2021/10/28 02:57:06;;;;;;;21.40;15.73;;;;;;;;;;5058920;28;20021;-63
2021/10/28 02:59:51;;;;;;;20.95;16.35;;;;;;;;;;5070835;28;20503;-61
2021/10/28 03:02:36;;;;;;;19.65;14.90;;;;;;;;;;5046789;28;20029;-61
2021/10/28 03:05:21;;;;;;;27.50;16.63;;;;;;;;;;5056959;28;20071;-65
2021/10/28 03:08:07;;;;;;;17.70;13.57;;;;;;;;;;5065072;28;20372;-67
2021/10/28 03:10:52;;;;;;;19.70;14.20;;;;;;;;;;5058900;28;20383;-65
2021/10/28 03:13:38;;;;;;;21.10;16.42;;;;;;;;;;5052885;28;20037;-65
2021/10/28 03:28:23;;;;;;;16.23;13.13;;;;;;;;;;5064840;28;20020;-63
2021/10/28 03:31:08;;;;;;;18.88;14.52;;;;;;;;;;5063186;28;20020;-61
2021/10/28 03:33:55;;;;;;;17.23;13.57;;;;;;;;;;5075543;28;20111;-61
2021/10/28 03:55:09;;;;;;;17.55;13.07;;;;;;;;;;5070122;28;20030;-63
2021/10/28 04:22:06;;;;;;;14.60;11.38;;;;;;;;;;5067400;28;20043;-73
2021/10/28 04:30:35;;;;;;;18.95;14.63;;;;;;;;;;5074396;28;20040;-73
2021/10/28 04:33:21;;;;;;;18.98;14.68;;;;;;;;;;5060683;28;20044;-74
2021/10/28 04:36:06;;;;;;;21.35;15.50;;;;;;;;;;5056737;28;20353;-76
2021/10/28 04:38:51;;;;;;;20.45;16.02;;;;;;;;;;5063371;28;20032;-75
2021/10/28 04:41:37;;;;;;;20.70;16.73;;;;;;;;;;5060815;28;20036;-61
2021/10/28 04:44:23;;;;;;;18.30;15.20;;;;;;;;;;5061698;28;20059;-60
2021/10/28 04:47:09;;;;;;;19.55;15.13;;;;;;;;;;5066355;28;20040;-60
2021/10/28 04:49:54;;;;;;;49.42;38.88;;;;;;;;;;5054434;28;20034;-61
2021/10/28 04:52:39;;;;;;;26.45;18.60;;;;;;;;;;5053750;28;20028;-62
2021/10/28 04:55:24;;;;;;;24.25;17.58;;;;;;;;;;5065799;28;20679;-63
2021/10/28 04:58:10;;;;;;;22.38;15.07;;;;;;;;;;5062965;28;20021;-63
2021/10/28 05:00:55;;;;;;;21.50;15.95;;;;;;;;;;5060025;28;20104;-66
2021/10/28 05:03:40;;;;;;;22.50;17.23;;;;;;;;;;5053079;28;20071;-65
2021/10/28 05:06:25;;;;;;;24.23;20.05;;;;;;;;;;5060883;28;20037;-66
2021/10/28 05:09:12;;;;;;;24.67;19.08;;;;;;;;;;5057617;28;20464;-64
2021/10/28 05:11:57;;;;;;;23.52;18.77;;;;;;;;;;5059114;28;20037;-65
2021/10/28 05:14:43;;;;;;;22.35;17.13;;;;;;;;;;5062122;28;20108;-60
2021/10/28 05:17:28;;;;;;;24.88;18.85;;;;;;;;;;5061788;28;20074;-59
2021/10/28 05:20:13;;;;;;;27.27;19.77;;;;;;;;;;5061641;28;20103;-60
2021/10/28 05:22:58;;;;;;;37.35;28.58;;;;;;;;;;5063582;28;20047;-63
2021/10/28 05:25:46;;;;;;;23.88;18.90;;;;;;;;;;5061036;28;20077;-65
2021/10/28 05:28:32;;;;;;;27.00;20.17;;;;;;;;;;5057339;28;20051;-61
2021/10/28 05:31:21;;;;;;;26.90;20.23;;;;;;;;;;5054891;28;20040;-60
2021/10/28 05:34:06;;;;;;;26.88;19.77;;;;;;;;;;5058274;28;20037;-72
2021/10/28 05:36:51;;;;;;;25.40;18.85;;;;;;;;;;5046983;28;20383;-63
2021/10/28 05:39:37;;;;;;;26.25;20.27;;;;;;;;;;5054916;28;20500;-61
2021/10/28 05:42:22;;;;;;;24.33;18.23;;;;;;;;;;5062955;28;20025;-61
2021/10/28 05:45:07;;;;;;;27.50;20.55;;;;;;;;;;5063575;28;20028;-60
2021/10/28 05:47:53;;;;;;;24.80;18.33;;;;;;;;;;5058303;28;20060;-63
2021/10/28 05:50:41;;;;;;;30.85;23.48;;;;;;;;;;5068516;28;20037;-66
2021/10/28 05:53:26;;;;;;;30.35;22.85;;;;;;;;;;5061796;28;20036;-64
2021/10/28 05:56:12;;;;;;;28.73;22.05;;;;;;;;;;5070817;28;20074;-61
2021/10/28 05:58:57;;;;;;;27.02;20.50;;;;;;;;;;5044890;28;20131;-61
2021/10/28 06:01:42;;;;;;;26.02;20.17;;;;;;;;;;5066765;28;20035;-61
2021/10/28 06:04:28;;;;;;;28.60;22.08;;;;;;;;;;5066088;28;20039;-61
2021/10/28 06:07:13;;;;;;;26.80;21.30;;;;;;;;;;5067317;28;20036;-62
2021/10/28 06:09:58;;;;;;;26.88;20.65;;;;;;;;;;5048180;28;20079;-59
2021/10/28 06:12:47;;;;;;;42.20;33.30;;;;;;;;;;5055719;28;20029;-60
2021/10/28 06:15:35;;;;;;;29.02;21.42;;;;;;;;;;5057901;28;20391;-60
2021/10/28 06:21:06;;;;;;;24.45;19.02;;;;;;;;;;5061621;28;20024;-59
2021/10/28 06:23:52;;;;;;;22.17;17.38;;;;;;;;;;5056190;28;20029;-63
2021/10/28 06:26:37;;;;;;;21.38;17.85;;;;;;;;;;5068489;28;20032;-62
2021/10/28 06:29:22;;;;;;;25.77;20.27;;;;;;;;;;5065666;28;20443;-60
2021/10/28 06:32:08;;;;;;;21.42;18.42;;;;;;;;;;5064645;28;20051;-63
2021/10/28 06:34:53;;;;;;;25.30;18.58;;;;;;;;;;5055237;28;20037;-67
2021/10/28 06:37:44;;;;;;;25.83;19.33;;;;;;;;;;5075275;28;20542;-66
2021/10/28 06:40:30;;;;;;;21.38;17.55;;;;;;;;;;5071960;28;20033;-66
2021/10/28 06:43:15;;;;;;;23.60;19.33;;;;;;;;;;5058797;28;20035;-64
2021/10/28 06:46:00;;;;;;;22.48;18.92;;;;;;;;;;5066875;28;20071;-65
2021/10/28 06:48:46;;;;;;;21.90;16.60;;;;;;;;;;5059622;28;20104;-68
2021/10/28 06:51:36;;;;;;;23.67;19.80;;;;;;;;;;5057526;28;20483;-68
2021/10/28 06:54:32;;;;;;;21.58;17.83;;;;;;;;;;5045674;28;20438;-68
2021/10/28 07:03:16;;;;;;;25.42;19.60;;;;;;;;;;5071373;28;20029;-65
2021/10/28 07:06:11;;;;;;;23.73;18.23;;;;;;;;;;5062238;28;20388;-62
2021/10/28 07:09:17;;;;;;;23.13;16.90;;;;;;;;;;5068407;28;20023;-63
2021/10/28 07:14:53;;;;;;;21.67;17.45;;;;;;;;;;5063900;28;20067;-65
2021/10/28 07:35:12;;;;;;;23.77;18.48;;;;;;;;;;5073668;28;20121;-65
2021/10/28 07:59:46;;;;;;;35.10;27.95;;;;;;;;;;5053549;28;20036;-65
2021/10/28 08:24:04;;;;;;;51.45;35.42;;;;;;;;;;5068018;28;20024;-66
2021/10/28 08:29:56;;;;;;;85.25;51.47;;;;;;;;;;5062557;28;20036;-66
2021/10/28 08:32:42;;;;;;;26.42;20.95;;;;;;;;;;5067548;28;20044;-65
2021/10/28 08:35:29;;;;;;;26.40;19.70;;;;;;;;;;5055869;28;20626;-64
2021/10/28 08:38:14;;;;;;;22.08;17.67;;;;;;;;;;5066166;28;20029;-61
2021/10/28 08:41:00;;;;;;;20.02;15.35;;;;;;;;;;5053630;28;20036;-59
2021/10/28 08:43:46;;;;;;;22.00;16.13;;;;;;;;;;5055035;28;20143;-62
2021/10/28 08:46:32;;;;;;;21.05;16.63;;;;;;;;;;5060522;28;20063;-64
2021/10/28 08:49:34;;;;;;;22.52;17.80;;;;;;;;;;5054445;28;20452;-60
2021/10/28 08:55:29;;;;;;;20.52;15.82;;;;;;;;;;5072956;28;20036;-73
2021/10/28 08:58:43;;;;;;;19.97;15.60;;;;;;;;;;5062856;28;20062;-65
2021/10/28 09:26:12;;;;;;;17.60;14.73;;;;;;;;;;5063911;28;20012;-61
2021/10/28 09:29:32;;;;;;;23.05;16.63;;;;;;;;;;5051257;28;20731;-61
2021/10/28 09:32:26;;;;;;;20.95;16.40;;;;;;;;;;5061869;28;20038;-68
2021/10/28 09:43:35;;;;;;;18.90;15.10;;;;;;;;;;5075960;28;20025;-61
2021/10/28 09:44:37;;;;;;;17.40;15.38;;;;;;;;;;5059852;28;20035;-62
2021/10/28 09:47:34;;;;;;;18.77;16.02;;;;;;;;;;5086365;28;20584;-62
2021/10/28 09:50:25;;;;;;;19.98;14.48;;;;;;;;;;5055609;28;20041;-65
2021/10/28 09:59:06;;;;;;;20.00;17.90;;;;;;;;;;5059740;28;20056;-70
2021/10/28 10:01:58;;;;;;;22.33;20.13;;;;;;;;;;5057781;28;20047;-71
2021/10/28 10:04:45;;;;;;;30.95;28.55;;;;;;;;;;5055672;28;20047;-72
2021/10/28 10:07:30;;;;;;;34.95;32.03;;;;;;;;;;5057937;28;20075;-72
2021/10/28 10:10:34;;;;;;;32.45;29.95;;;;;;;;;;5068471;28;20055;-68
2021/10/28 10:13:26;;;;;;;22.50;20.42;;;;;;;;;;5051786;28;20069;-65
2021/10/28 10:16:12;;;;;;;17.98;14.18;;;;;;;;;;5062769;28;20025;-64
2021/10/28 10:18:59;;;;;;;17.33;14.70;;;;;;;;;;5060600;28;20029;-69
2021/10/28 10:21:49;;;;;;;14.90;12.43;;;;;;;;;;5062787;28;20028;-66
2021/10/28 10:24:48;;;;;;;18.25;14.60;;;;;;;;;;5043366;28;20041;-65
2021/10/28 10:29:02;;;;;;;30.48;22.92;;;;;;;;;;5067623;28;20028;-66
2021/10/28 11:06:21;;;;;;;15.52;11.45;;;;;;;;;;5066904;28;20097;-75
2021/10/28 11:22:00;;;;;;;18.85;14.00;;;;;;;;;;5065891;28;20078;-67
2021/10/28 11:27:51;;;;;;;14.60;10.52;;;;;;;;;;5075157;28;20025;-66
2021/10/28 12:45:00;;;;;;;12.95;9.57;;;;;;;;;;5063055;28;20497;-69
2021/10/28 14:15:55;;;;;;;13.10;9.00;;;;;;;;;;5080130;28;20364;-64
2021/10/28 14:27:19;;;;;;;11.70;8.48;;;;;;;;;;5084511;28;20032;-69
2021/10/28 15:27:38;;;;;;;13.00;8.77;;;;;;;;;;5070117;28;20028;-68
2021/10/28 15:34:28;;;;;;;19.92;12.73;;;;;;;;;;5057783;28;20041;-61
2021/10/28 15:40:32;;;;;;;11.32;7.57;;;;;;;;;;5063695;28;20032;-64
2021/10/28 15:50:19;;;;;;;17.70;11.63;;;;;;;;;;5059670;28;20108;-63
2021/10/28 16:22:52;;;;;;;26.95;17.10;;;;;;;;;;5063450;28;20032;-73
2021/10/28 16:25:38;;;;;;;21.27;12.60;;;;;;;;;;5057114;28;20032;-74
2021/10/28 16:28:25;;;;;;;12.10;7.72;;;;;;;;;;5049177;28;20543;-72
2021/10/28 16:31:13;;;;;;;11.60;7.72;;;;;;;;;;5058508;28;20033;-76
2021/10/28 16:33:58;;;;;;;15.40;7.47;;;;;;;;;;5055664;28;20114;-73
2021/10/28 16:36:43;;;;;;;11.93;7.32;;;;;;;;;;5062286;28;20032;-66
2021/10/28 16:39:29;;;;;;;13.23;7.00;;;;;;;;;;5063033;28;20433;-68
2021/10/28 16:42:15;;;;;;;8.88;6.35;;;;;;;;;;5063389;28;20489;-70
2021/10/28 16:45:00;;;;;;;13.13;8.25;;;;;;;;;;5071780;28;20028;-70
2021/10/28 16:47:46;;;;;;;10.52;7.78;;;;;;;;;;5064122;28;20045;-70
2021/10/28 16:50:31;;;;;;;18.25;8.23;;;;;;;;;;5062619;28;20581;-71
2021/10/28 16:53:17;;;;;;;17.02;9.20;;;;;;;;;;5048736;28;20044;-62
2021/10/28 16:56:03;;;;;;;16.35;9.93;;;;;;;;;;5064260;28;20464;-73
2021/10/28 16:58:49;;;;;;;11.77;7.43;;;;;;;;;;5056120;28;20044;-62
2021/10/28 17:01:34;;;;;;;13.07;8.57;;;;;;;;;;5055321;28;20422;-61
2021/10/28 17:04:20;;;;;;;10.65;6.75;;;;;;;;;;5056867;28;20047;-61
2021/10/28 17:07:05;;;;;;;12.02;7.28;;;;;;;;;;5063119;28;20055;-60
2021/10/28 17:09:52;;;;;;;13.82;8.82;;;;;;;;;;5063167;28;20036;-61
2021/10/28 17:12:39;;;;;;;18.85;10.05;;;;;;;;;;5064361;28;20390;-64
2021/10/28 17:15:25;;;;;;;14.63;9.45;;;;;;;;;;5047692;28;20051;-62
2021/10/28 17:18:10;;;;;;;13.50;9.32;;;;;;;;;;5063710;28;20419;-64
2021/10/28 17:20:58;;;;;;;21.13;10.70;;;;;;;;;;5065453;28;20032;-65
2021/10/28 17:23:48;;;;;;;13.98;8.75;;;;;;;;;;5059276;28;20240;-65
2021/10/28 17:26:34;;;;;;;14.90;8.80;;;;;;;;;;5055829;28;20143;-64
2021/10/28 17:29:19;;;;;;;11.70;8.30;;;;;;;;;;5060677;28;20510;-64
2021/10/28 17:32:05;;;;;;;14.52;8.95;;;;;;;;;;5059858;28;20036;-66
2021/10/28 17:34:50;;;;;;;14.85;9.27;;;;;;;;;;5061088;28;20041;-64
2021/10/28 17:37:36;;;;;;;14.25;8.80;;;;;;;;;;5066392;28;20556;-63
2021/10/28 17:40:23;;;;;;;13.93;8.77;;;;;;;;;;5057763;28;20037;-64
2021/10/28 17:43:11;;;;;;;16.27;10.13;;;;;;;;;;5058420;28;20404;-68
2021/10/28 17:45:57;;;;;;;14.32;9.40;;;;;;;;;;5068875;28;20058;-65
2021/10/28 17:48:43;;;;;;;13.70;9.07;;;;;;;;;;5060384;28;20041;-73
2021/10/28 17:51:29;;;;;;;14.45;8.90;;;;;;;;;;5066864;28;20016;-66
2021/10/28 17:54:14;;;;;;;15.60;9.90;;;;;;;;;;5055050;28;20032;-65
2021/10/28 17:56:59;;;;;;;13.77;9.50;;;;;;;;;;5064709;28;20025;-64
2021/10/28 17:59:45;;;;;;;13.07;8.52;;;;;;;;;;5063658;28;20111;-64
2021/10/28 18:02:31;;;;;;;15.48;9.85;;;;;;;;;;5065600;28;20037;-63
2021/10/28 18:05:16;;;;;;;15.32;9.77;;;;;;;;;;5055929;28;20025;-65
2021/10/28 18:08:02;;;;;;;18.65;10.85;;;;;;;;;;5066484;28;20021;-66
2021/10/28 18:10:47;;;;;;;37.83;22.73;;;;;;;;;;5067938;28;20044;-66
2021/10/28 18:13:34;;;;;;;20.77;15.00;;;;;;;;;;5052846;28;20068;-65
2021/10/28 18:16:20;;;;;;;18.38;11.18;;;;;;;;;;5046827;28;20076;-65
2021/10/28 18:19:07;;;;;;;20.85;11.25;;;;;;;;;;5066131;28;20047;-63
2021/10/28 18:21:55;;;;;;;17.98;11.07;;;;;;;;;;5063701;28;20032;-65
2021/10/28 18:24:41;;;;;;;18.38;12.10;;;;;;;;;;5060700;28;20024;-69
2021/10/28 18:27:26;;;;;;;15.15;10.90;;;;;;;;;;5059899;28;20024;-64
2021/10/28 18:30:13;;;;;;;17.08;10.18;;;;;;;;;;5057626;28;20067;-73
2021/10/28 18:32:59;;;;;;;17.45;10.90;;;;;;;;;;5048868;28;20111;-75
2021/10/28 18:35:46;;;;;;;17.02;10.85;;;;;;;;;;5060086;28;20036;-71
2021/10/28 18:38:32;;;;;;;15.55;10.95;;;;;;;;;;5059942;28;20028;-72
2021/10/28 18:41:18;;;;;;;17.25;11.77;;;;;;;;;;5063941;28;20107;-74
2021/10/28 18:44:04;;;;;;;20.35;11.88;;;;;;;;;;5078419;28;20399;-69
2021/10/28 18:46:49;;;;;;;18.92;12.43;;;;;;;;;;5042651;28;20052;-60
2021/10/28 18:49:35;;;;;;;19.48;12.65;;;;;;;;;;5051534;28;20380;-61
2021/10/28 18:52:20;;;;;;;18.98;11.65;;;;;;;;;;5056526;28;20047;-61
2021/10/28 18:55:06;;;;;;;20.08;11.48;;;;;;;;;;5050437;28;20036;-61
2021/10/28 18:57:51;;;;;;;20.45;13.02;;;;;;;;;;5059434;28;20028;-71
2021/10/28 19:00:36;;;;;;;17.08;11.38;;;;;;;;;;5058689;28;20522;-72
2021/10/28 19:03:22;;;;;;;17.80;11.35;;;;;;;;;;5074832;28;20087;-64
2021/10/28 19:06:08;;;;;;;17.13;12.65;;;;;;;;;;5061318;28;20036;-65
2021/10/28 19:08:54;;;;;;;18.15;12.32;;;;;;;;;;5066163;28;20429;-62
2021/10/28 19:11:40;;;;;;;19.13;12.00;;;;;;;;;;5050893;28;20500;-60
2021/10/28 19:14:26;;;;;;;21.45;11.30;;;;;;;;;;5055233;28;20036;-61
2021/10/28 19:17:11;;;;;;;19.88;12.45;;;;;;;;;;5075431;28;20032;-62
2021/10/28 19:19:56;;;;;;;17.52;11.32;;;;;;;;;;5057929;28;20059;-63
2021/10/28 19:22:42;;;;;;;16.23;11.27;;;;;;;;;;5051959;28;20426;-70
2021/10/28 19:25:27;;;;;;;20.30;12.38;;;;;;;;;;5063422;28;20418;-68
2021/10/28 19:28:12;;;;;;;20.52;12.48;;;;;;;;;;5058737;28;20483;-65
2021/10/28 19:33:48;;;;;;;16.13;12.00;;;;;;;;;;5073322;28;20068;-65
2021/10/28 19:36:38;;;;;;;16.63;11.93;;;;;;;;;;5057604;28;20029;-66
2021/10/28 19:46:08;;;;;;;22.52;14.57;;;;;;;;;;5066977;28;20063;-65
2021/10/28 19:48:36;;;;;;;21.20;13.05;;;;;;;;;;5077211;28;20033;-68
2021/10/28 19:51:21;;;;;;;19.48;12.07;;;;;;;;;;5064154;28;20032;-66
2021/10/28 19:54:11;;;;;;;20.15;13.40;;;;;;;;;;5039957;28;20112;-66
2021/10/28 19:56:56;;;;;;;24.77;13.60;;;;;;;;;;5053192;28;20076;-65
2021/10/28 19:59:44;;;;;;;21.98;13.40;;;;;;;;;;5066344;28;20033;-62
2021/10/28 20:02:41;;;;;;;24.98;14.30;;;;;;;;;;5048806;28;20033;-71
2021/10/28 20:15:15;;;;;;;24.17;13.35;;;;;;;;;;5067580;28;20036;-69
2021/10/28 20:20:40;;;;;;;20.42;14.05;;;;;;;;;;5062731;28;20033;-62
2021/10/28 20:23:25;;;;;;;21.85;13.30;;;;;;;;;;5051605;28;20048;-62
2021/10/28 20:26:11;;;;;;;20.10;13.20;;;;;;;;;;5056981;28;20107;-62
2021/10/28 20:28:59;;;;;;;21.42;14.38;;;;;;;;;;5058490;28;20528;-62
2021/10/28 20:31:44;;;;;;;19.85;13.95;;;;;;;;;;5054254;28;20647;-63
2021/10/28 20:34:37;;;;;;;20.95;13.55;;;;;;;;;;5063171;28;20040;-64
2021/10/28 20:37:22;;;;;;;20.42;14.05;;;;;;;;;;5075783;28;20456;-61
2021/10/28 20:40:08;;;;;;;23.58;14.25;;;;;;;;;;5055190;28;20441;-60
2021/10/28 20:42:53;;;;;;;21.80;14.73;;;;;;;;;;5054714;28;20361;-61
2021/10/28 20:45:38;;;;;;;24.40;13.73;;;;;;;;;;5059939;28;20439;-61
2021/10/28 20:48:24;;;;;;;17.55;12.60;;;;;;;;;;5060342;28;20090;-64
2021/10/28 20:51:09;;;;;;;17.55;12.63;;;;;;;;;;5067873;28;20040;-62
2021/10/28 20:53:54;;;;;;;21.92;14.48;;;;;;;;;;5064055;28;20487;-70
2021/10/28 20:56:40;;;;;;;19.25;13.10;;;;;;;;;;5059919;28;20487;-67
2021/10/28 20:59:25;;;;;;;19.23;13.60;;;;;;;;;;5060321;28;20494;-69
2021/10/28 21:02:11;;;;;;;17.73;13.07;;;;;;;;;;5062886;28;20020;-68
2021/10/28 21:04:56;;;;;;;19.77;13.90;;;;;;;;;;5049327;28;20043;-68
2021/10/28 21:07:43;;;;;;;21.27;15.13;;;;;;;;;;5057737;28;20028;-68
2021/10/28 21:10:28;;;;;;;20.70;14.55;;;;;;;;;;5071366;28;20470;-68
2021/10/28 21:13:14;;;;;;;22.83;13.38;;;;;;;;;;5046200;28;20381;-72
2021/10/28 21:16:01;;;;;;;22.88;14.20;;;;;;;;;;5052224;28;20039;-63
2021/10/28 21:18:46;;;;;;;23.17;13.80;;;;;;;;;;5063462;28;20056;-58
2021/10/28 21:21:32;;;;;;;25.10;13.98;;;;;;;;;;5045163;28;20063;-61
2021/10/28 21:24:18;;;;;;;19.13;13.23;;;;;;;;;;5062057;28;20024;-59
2021/10/28 21:27:03;;;;;;;20.65;13.32;;;;;;;;;;5059912;28;20365;-60
2021/10/28 21:29:48;;;;;;;22.00;14.20;;;;;;;;;;5055222;28;20032;-73
2021/10/28 21:32:34;;;;;;;19.35;13.60;;;;;;;;;;5039195;28;20037;-59
2021/10/28 21:35:19;;;;;;;19.13;13.10;;;;;;;;;;5050611;28;20040;-61
2021/10/28 21:38:05;;;;;;;21.23;13.25;;;;;;;;;;5052357;28;20058;-60
2021/10/28 21:40:50;;;;;;;23.23;15.70;;;;;;;;;;5060893;28;20033;-59
2021/10/28 21:43:36;;;;;;;23.00;14.52;;;;;;;;;;5056626;28;20025;-58
2021/10/28 21:46:22;;;;;;;21.65;14.48;;;;;;;;;;5060349;28;20435;-60
2021/10/28 21:49:07;;;;;;;21.92;14.13;;;;;;;;;;5057100;28;20036;-62
2021/10/28 21:51:56;;;;;;;18.98;13.60;;;;;;;;;;5069784;28;20175;-61
2021/10/28 21:55:08;;;;;;;22.45;14.38;;;;;;;;;;5058171;28;20033;-60
2021/10/28 21:58:04;;;;;;;21.00;13.98;;;;;;;;;;5054273;28;20517;-62
2021/10/28 22:25:04;;;;;;;23.42;15.15;;;;;;;;;;5061206;28;20439;-63
2021/10/28 22:27:50;;;;;;;29.98;18.60;;;;;;;;;;5056789;28;20581;-60
2021/10/28 22:30:35;;;;;;;26.48;15.68;;;;;;;;;;5039106;28;21748;-61
2021/10/28 22:33:20;;;;;;;23.15;13.75;;;;;;;;;;5062248;28;20041;-61
2021/10/28 22:36:32;;;;;;;20.35;15.57;;;;;;;;;;5046460;28;20121;-62
2021/10/28 22:39:18;;;;;;;20.77;14.40;;;;;;;;;;5060457;28;20444;-61
2021/10/28 22:42:04;;;;;;;21.15;13.10;;;;;;;;;;5061048;28;20471;-60
2021/10/28 22:44:50;;;;;;;24.58;15.18;;;;;;;;;;5068656;28;20020;-67
2021/10/28 22:47:35;;;;;;;21.88;14.65;;;;;;;;;;5061895;28;20036;-61
2021/10/28 22:50:20;;;;;;;20.38;13.85;;;;;;;;;;5067653;28;20032;-62
2021/10/28 22:53:06;;;;;;;22.52;13.48;;;;;;;;;;5055723;28;20503;-60
2021/10/28 22:55:53;;;;;;;19.95;12.50;;;;;;;;;;5075770;28;20049;-61
2021/10/28 22:58:43;;;;;;;21.20;13.23;;;;;;;;;;5047401;28;20041;-62
2021/10/28 23:02:27;;;;;;;;;;;;;;;;;;5052362;28;20028;-60
2021/10/28 23:07:38;;;;;;;20.27;13.68;;;;;;;;;;5060161;28;20547;-61
2021/10/28 23:10:56;;;;;;;16.98;12.63;;;;;;;;;;5058244;28;20037;-64
2021/10/28 23:14:13;;;;;;;21.08;14.50;;;;;;;;;;5070374;28;20082;-61
2021/10/28 23:22:54;;;;;;;16.80;12.45;;;;;;;;;;5074817;28;20104;-69
2021/10/28 23:25:39;;;;;;;18.90;13.85;;;;;;;;;;5057133;28;20081;-63
2021/10/28 23:28:24;;;;;;;21.70;14.48;;;;;;;;;;5050197;28;20051;-63
2021/10/28 23:31:10;;;;;;;20.27;15.07;;;;;;;;;;5056675;28;20090;-63
2021/10/28 23:33:55;;;;;;;21.65;13.90;;;;;;;;;;5058411;28;20036;-62
2021/10/28 23:36:40;;;;;;;25.27;15.15;;;;;;;;;;5059434;28;20079;-64
2021/10/28 23:39:26;;;;;;;24.60;15.73;;;;;;;;;;5057350;28;20028;-59
2021/10/28 23:42:11;;;;;;;19.02;14.07;;;;;;;;;;5055971;28;20024;-60
2021/10/28 23:44:57;;;;;;;20.40;14.20;;;;;;;;;;5043798;28;20475;-62
2021/10/28 23:47:42;;;;;;;26.17;16.92;;;;;;;;;;5062178;28;20491;-61
2021/10/28 23:50:28;;;;;;;24.40;14.30;;;;;;;;;;5055247;28;20032;-60
2021/10/28 23:53:13;;;;;;;20.13;13.43;;;;;;;;;;5058264;28;20060;-60
2021/10/28 23:55:59;;;;;;;18.42;13.68;;;;;;;;;;5067054;28;20565;-59
2021/10/28 23:58:45;;;;;;;19.23;12.55;;;;;;;;;;5056146;28;20049;-64
